sensor_id;sensor_type;location;lat;lon;timestamp;temperature;humidity
10390;DHT22;5241;47.830;12.972;2023-05-19T00:00:14;10.00;99.90
10390;DHT22;5241;47.830;12.972;2023-05-19T00:02:40;10.00;99.90
10390;DHT22;5241;47.830;12.972;2023-05-19T00:05:06;10.00;99.90
10390;DHT22;5241;47.830;12.972;2023-05-19T00:07:32;10.00;99.90
10390;DHT22;5241;47.830;12.972;2023-05-19T00:10:00;9.90;99.90
10390;DHT22;5241;47.830;12.972;2023-05-19T00:12:26;9.90;99.90
10390;DHT22;5241;47.830;12.972;2023-05-19T00:14:52;9.90;99.90
10390;DHT22;5241;47.830;12.972;2023-05-19T00:17:18;9.90;99.90
10390;DHT22;5241;47.830;12.972;2023-05-19T00:19:44;9.90;99.90
10390;DHT22;5241;47.830;12.972;2023-05-19T00:22:10;9.80;99.90
10390;DHT22;5241;47.830;12.972;2023-05-19T00:24:35;9.80;99.90
10390;DHT22;5241;47.830;12.972;2023-05-19T00:27:01;9.80;99.90
10390;DHT22;5241;47.830;12.972;2023-05-19T00:29:28;9.80;99.90
10390;DHT22;5241;47.830;12.972;2023-05-19T00:31:55;9.80;99.90
10390;DHT22;5241;47.830;12.972;2023-05-19T00:34:21;9.70;99.90
10390;DHT22;5241;47.830;12.972;2023-05-19T00:36:53;9.70;99.90
10390;DHT22;5241;47.830;12.972;2023-05-19T00:39:22;9.70;99.90
10390;DHT22;5241;47.830;12.972;2023-05-19T00:41:47;9.70;99.90
10390;DHT22;5241;47.830;12.972;2023-05-19T00:44:13;9.70;99.90
10390;DHT22;5241;47.830;12.972;2023-05-19T00:46:38;9.60;99.90
10390;DHT22;5241;47.830;12.972;2023-05-19T00:49:04;9.60;99.90
10390;DHT22;5241;47.830;12.972;2023-05-19T00:51:29;9.70;99.90
10390;DHT22;5241;47.830;12.972;2023-05-19T00:53:55;9.70;99.90
10390;DHT22;5241;47.830;12.972;2023-05-19T00:56:22;9.60;99.90
10390;DHT22;5241;47.830;12.972;2023-05-19T00:58:50;9.70;99.90
10390;DHT22;5241;47.830;12.972;2023-05-19T01:01:15;9.70;99.90
10390;DHT22;5241;47.830;12.972;2023-05-19T01:03:42;9.80;99.90
10390;DHT22;5241;47.830;12.972;2023-05-19T01:06:08;9.70;99.90
10390;DHT22;5241;47.830;12.972;2023-05-19T01:08:35;9.80;99.90
10390;DHT22;5241;47.830;12.972;2023-05-19T01:11:01;9.80;99.90
10390;DHT22;5241;47.830;12.972;2023-05-19T01:13:27;9.80;99.90
10390;DHT22;5241;47.830;12.972;2023-05-19T01:18:55;9.80;99.90
10390;DHT22;5241;47.830;12.972;2023-05-19T01:21:55;9.80;99.90
10390;DHT22;5241;47.830;12.972;2023-05-19T01:24:58;9.90;99.90
10390;DHT22;5241;47.830;12.972;2023-05-19T01:32:48;9.80;99.90
10390;DHT22;5241;47.830;12.972;2023-05-19T01:35:17;9.80;99.90
10390;DHT22;5241;47.830;12.972;2023-05-19T01:37:43;9.70;99.90
10390;DHT22;5241;47.830;12.972;2023-05-19T01:40:10;9.70;99.90
10390;DHT22;5241;47.830;12.972;2023-05-19T01:42:37;9.70;99.90
10390;DHT22;5241;47.830;12.972;2023-05-19T01:45:05;9.70;99.90
10390;DHT22;5241;47.830;12.972;2023-05-19T01:47:35;9.60;99.90
10390;DHT22;5241;47.830;12.972;2023-05-19T01:50:05;9.60;99.90
10390;DHT22;5241;47.830;12.972;2023-05-19T01:52:31;9.60;99.90
10390;DHT22;5241;47.830;12.972;2023-05-19T01:54:57;9.60;99.90
10390;DHT22;5241;47.830;12.972;2023-05-19T02:00:10;9.50;99.90
10390;DHT22;5241;47.830;12.972;2023-05-19T02:06:15;9.50;99.90
10390;DHT22;5241;47.830;12.972;2023-05-19T02:11:25;9.50;99.90
10390;DHT22;5241;47.830;12.972;2023-05-19T02:13:55;9.50;99.90
10390;DHT22;5241;47.830;12.972;2023-05-19T02:16:24;9.60;99.90
10390;DHT22;5241;47.830;12.972;2023-05-19T02:18:52;9.60;99.90
10390;DHT22;5241;47.830;12.972;2023-05-19T02:21:18;9.60;99.90
10390;DHT22;5241;47.830;12.972;2023-05-19T02:23:43;9.50;99.90
10390;DHT22;5241;47.830;12.972;2023-05-19T02:26:09;9.50;99.90
10390;DHT22;5241;47.830;12.972;2023-05-19T02:28:34;9.50;99.90
10390;DHT22;5241;47.830;12.972;2023-05-19T02:31:01;9.50;99.90
10390;DHT22;5241;47.830;12.972;2023-05-19T02:33:27;9.40;99.90
10390;DHT22;5241;47.830;12.972;2023-05-19T02:35:55;9.40;99.90
10390;DHT22;5241;47.830;12.972;2023-05-19T02:38:21;9.50;99.90
10390;DHT22;5241;47.830;12.972;2023-05-19T02:40:46;9.50;99.90
10390;DHT22;5241;47.830;12.972;2023-05-19T02:43:12;9.50;99.90
10390;DHT22;5241;47.830;12.972;2023-05-19T02:45:38;9.40;99.90
10390;DHT22;5241;47.830;12.972;2023-05-19T02:48:04;9.40;99.90
10390;DHT22;5241;47.830;12.972;2023-05-19T02:50:30;9.40;99.90
10390;DHT22;5241;47.830;12.972;2023-05-19T02:52:55;9.40;99.90
10390;DHT22;5241;47.830;12.972;2023-05-19T02:55:21;9.50;99.90
10390;DHT22;5241;47.830;12.972;2023-05-19T02:57:46;9.50;99.90
10390;DHT22;5241;47.830;12.972;2023-05-19T03:00:12;9.50;99.90
10390;DHT22;5241;47.830;12.972;2023-05-19T03:02:38;9.50;99.90
10390;DHT22;5241;47.830;12.972;2023-05-19T03:05:04;9.50;99.90
10390;DHT22;5241;47.830;12.972;2023-05-19T03:07:29;9.60;99.90
10390;DHT22;5241;47.830;12.972;2023-05-19T03:09:55;9.60;99.90
10390;DHT22;5241;47.830;12.972;2023-05-19T03:12:20;9.60;99.90
10390;DHT22;5241;47.830;12.972;2023-05-19T03:14:46;9.60;99.90
10390;DHT22;5241;47.830;12.972;2023-05-19T03:17:12;9.60;99.90
10390;DHT22;5241;47.830;12.972;2023-05-19T03:19:37;9.60;99.90
10390;DHT22;5241;47.830;12.972;2023-05-19T03:22:03;9.60;99.90
10390;DHT22;5241;47.830;12.972;2023-05-19T03:24:29;9.70;99.90
10390;DHT22;5241;47.830;12.972;2023-05-19T03:26:54;9.70;99.90
10390;DHT22;5241;47.830;12.972;2023-05-19T03:29:20;9.60;99.90
10390;DHT22;5241;47.830;12.972;2023-05-19T03:31:46;9.70;99.90
10390;DHT22;5241;47.830;12.972;2023-05-19T03:34:11;9.70;99.90
10390;DHT22;5241;47.830;12.972;2023-05-19T03:36:37;9.70;99.90
10390;DHT22;5241;47.830;12.972;2023-05-19T03:39:05;9.70;99.90
10390;DHT22;5241;47.830;12.972;2023-05-19T03:41:31;9.70;99.90
10390;DHT22;5241;47.830;12.972;2023-05-19T03:43:57;9.70;99.90
10390;DHT22;5241;47.830;12.972;2023-05-19T03:46:22;9.80;99.90
10390;DHT22;5241;47.830;12.972;2023-05-19T03:48:48;9.80;99.90
10390;DHT22;5241;47.830;12.972;2023-05-19T03:51:13;9.70;99.90
10390;DHT22;5241;47.830;12.972;2023-05-19T03:53:39;9.80;99.90
10390;DHT22;5241;47.830;12.972;2023-05-19T03:56:05;9.80;99.90
10390;DHT22;5241;47.830;12.972;2023-05-19T03:58:32;9.70;99.90
10390;DHT22;5241;47.830;12.972;2023-05-19T04:00:57;9.70;99.90
10390;DHT22;5241;47.830;12.972;2023-05-19T04:03:25;9.80;99.90
10390;DHT22;5241;47.830;12.972;2023-05-19T04:05:52;9.70;99.90
10390;DHT22;5241;47.830;12.972;2023-05-19T04:08:18;9.80;99.90
10390;DHT22;5241;47.830;12.972;2023-05-19T04:10:43;9.80;99.90
10390;DHT22;5241;47.830;12.972;2023-05-19T04:13:09;9.90;99.90
10390;DHT22;5241;47.830;12.972;2023-05-19T04:15:35;10.00;99.90
10390;DHT22;5241;47.830;12.972;2023-05-19T04:18:01;10.00;99.90
10390;DHT22;5241;47.830;12.972;2023-05-19T04:20:27;9.90;99.90
10390;DHT22;5241;47.830;12.972;2023-05-19T04:22:52;10.00;99.90
10390;DHT22;5241;47.830;12.972;2023-05-19T04:25:18;10.00;99.90
10390;DHT22;5241;47.830;12.972;2023-05-19T04:27:44;10.00;99.90
10390;DHT22;5241;47.830;12.972;2023-05-19T04:30:10;10.00;99.90
10390;DHT22;5241;47.830;12.972;2023-05-19T04:32:36;10.10;99.90
10390;DHT22;5241;47.830;12.972;2023-05-19T04:35:02;10.20;99.90
10390;DHT22;5241;47.830;12.972;2023-05-19T04:37:28;10.30;99.90
10390;DHT22;5241;47.830;12.972;2023-05-19T04:39:54;10.30;99.90
10390;DHT22;5241;47.830;12.972;2023-05-19T04:42:19;10.40;99.90
10390;DHT22;5241;47.830;12.972;2023-05-19T04:44:46;10.40;99.90
10390;DHT22;5241;47.830;12.972;2023-05-19T04:47:14;10.50;99.90
10390;DHT22;5241;47.830;12.972;2023-05-19T04:49:39;10.50;99.90
10390;DHT22;5241;47.830;12.972;2023-05-19T04:52:09;10.70;99.90
10390;DHT22;5241;47.830;12.972;2023-05-19T04:54:36;10.80;99.90
10390;DHT22;5241;47.830;12.972;2023-05-19T04:57:02;10.90;99.90
10390;DHT22;5241;47.830;12.972;2023-05-19T04:59:27;11.00;99.90
10390;DHT22;5241;47.830;12.972;2023-05-19T05:01:53;11.00;99.90
10390;DHT22;5241;47.830;12.972;2023-05-19T05:04:19;11.10;99.90
10390;DHT22;5241;47.830;12.972;2023-05-19T05:06:46;11.10;99.90
10390;DHT22;5241;47.830;12.972;2023-05-19T05:09:13;11.20;99.90
10390;DHT22;5241;47.830;12.972;2023-05-19T05:11:40;11.20;99.90
10390;DHT22;5241;47.830;12.972;2023-05-19T05:14:05;11.10;99.90
10390;DHT22;5241;47.830;12.972;2023-05-19T05:16:31;11.10;99.90
10390;DHT22;5241;47.830;12.972;2023-05-19T05:18:58;11.20;99.90
10390;DHT22;5241;47.830;12.972;2023-05-19T05:21:24;11.30;99.90
10390;DHT22;5241;47.830;12.972;2023-05-19T05:23:51;11.30;99.90
10390;DHT22;5241;47.830;12.972;2023-05-19T05:26:17;11.30;99.90
10390;DHT22;5241;47.830;12.972;2023-05-19T05:28:49;11.60;99.90
10390;DHT22;5241;47.830;12.972;2023-05-19T05:31:15;11.70;99.90
10390;DHT22;5241;47.830;12.972;2023-05-19T05:33:41;11.90;99.90
10390;DHT22;5241;47.830;12.972;2023-05-19T05:36:07;12.10;99.90
10390;DHT22;5241;47.830;12.972;2023-05-19T05:38:33;12.30;99.90
10390;DHT22;5241;47.830;12.972;2023-05-19T05:40:59;12.60;99.90
10390;DHT22;5241;47.830;12.972;2023-05-19T05:43:28;12.70;99.90
10390;DHT22;5241;47.830;12.972;2023-05-19T05:45:57;12.70;99.90
10390;DHT22;5241;47.830;12.972;2023-05-19T05:48:23;13.00;99.90
10390;DHT22;5241;47.830;12.972;2023-05-19T05:50:49;13.10;99.90
10390;DHT22;5241;47.830;12.972;2023-05-19T05:53:19;13.10;99.90
10390;DHT22;5241;47.830;12.972;2023-05-19T05:55:46;13.10;99.90
10390;DHT22;5241;47.830;12.972;2023-05-19T05:58:11;13.60;99.90
10390;DHT22;5241;47.830;12.972;2023-05-19T06:00:39;13.70;99.90
10390;DHT22;5241;47.830;12.972;2023-05-19T06:03:08;14.00;99.90
10390;DHT22;5241;47.830;12.972;2023-05-19T06:05:34;14.00;99.90
10390;DHT22;5241;47.830;12.972;2023-05-19T06:08:00;14.10;99.90
10390;DHT22;5241;47.830;12.972;2023-05-19T06:10:27;14.20;99.90
10390;DHT22;5241;47.830;12.972;2023-05-19T06:12:52;14.20;99.90
10390;DHT22;5241;47.830;12.972;2023-05-19T06:15:18;14.60;99.90
10390;DHT22;5241;47.830;12.972;2023-05-19T06:17:43;14.50;99.90
10390;DHT22;5241;47.830;12.972;2023-05-19T06:20:09;14.30;99.90
10390;DHT22;5241;47.830;12.972;2023-05-19T06:22:35;14.00;99.90
10390;DHT22;5241;47.830;12.972;2023-05-19T06:25:01;14.00;99.90
10390;DHT22;5241;47.830;12.972;2023-05-19T06:27:27;14.50;99.90
10390;DHT22;5241;47.830;12.972;2023-05-19T06:29:53;14.60;99.90
10390;DHT22;5241;47.830;12.972;2023-05-19T06:32:19;14.90;99.90
10390;DHT22;5241;47.830;12.972;2023-05-19T06:34:44;15.00;99.90
10390;DHT22;5241;47.830;12.972;2023-05-19T06:37:10;15.10;99.90
10390;DHT22;5241;47.830;12.972;2023-05-19T06:39:36;14.70;99.90
10390;DHT22;5241;47.830;12.972;2023-05-19T06:42:02;14.50;99.90
10390;DHT22;5241;47.830;12.972;2023-05-19T06:44:28;14.70;99.90
10390;DHT22;5241;47.830;12.972;2023-05-19T06:46:53;14.70;99.90
10390;DHT22;5241;47.830;12.972;2023-05-19T06:49:19;14.60;99.90
10390;DHT22;5241;47.830;12.972;2023-05-19T06:51:45;14.40;99.90
10390;DHT22;5241;47.830;12.972;2023-05-19T06:54:10;15.00;99.90
10390;DHT22;5241;47.830;12.972;2023-05-19T06:56:37;15.70;99.90
10390;DHT22;5241;47.830;12.972;2023-05-19T06:59:03;16.70;99.90
10390;DHT22;5241;47.830;12.972;2023-05-19T07:01:28;17.00;99.90
10390;DHT22;5241;47.830;12.972;2023-05-19T07:03:54;16.80;99.90
10390;DHT22;5241;47.830;12.972;2023-05-19T07:06:20;17.30;99.90
10390;DHT22;5241;47.830;12.972;2023-05-19T07:08:45;18.30;99.90
10390;DHT22;5241;47.830;12.972;2023-05-19T07:11:11;17.50;99.90
10390;DHT22;5241;47.830;12.972;2023-05-19T07:13:36;16.90;99.90
10390;DHT22;5241;47.830;12.972;2023-05-19T07:16:02;17.10;99.90
10390;DHT22;5241;47.830;12.972;2023-05-19T07:18:28;17.20;99.90
10390;DHT22;5241;47.830;12.972;2023-05-19T07:20:56;16.90;99.90
10390;DHT22;5241;47.830;12.972;2023-05-19T07:23:22;16.60;99.90
10390;DHT22;5241;47.830;12.972;2023-05-19T07:25:48;16.60;99.90
10390;DHT22;5241;47.830;12.972;2023-05-19T07:28:13;16.40;99.90
10390;DHT22;5241;47.830;12.972;2023-05-19T07:30:39;16.20;99.90
10390;DHT22;5241;47.830;12.972;2023-05-19T07:33:05;16.10;99.90
10390;DHT22;5241;47.830;12.972;2023-05-19T07:35:31;15.80;99.90
10390;DHT22;5241;47.830;12.972;2023-05-19T07:37:57;15.70;99.90
10390;DHT22;5241;47.830;12.972;2023-05-19T07:40:22;15.30;99.90
10390;DHT22;5241;47.830;12.972;2023-05-19T07:42:48;15.80;99.90
10390;DHT22;5241;47.830;12.972;2023-05-19T07:45:14;15.70;99.90
10390;DHT22;5241;47.830;12.972;2023-05-19T07:47:40;15.80;99.90
10390;DHT22;5241;47.830;12.972;2023-05-19T07:50:06;15.60;99.90
10390;DHT22;5241;47.830;12.972;2023-05-19T07:52:40;15.60;99.90
10390;DHT22;5241;47.830;12.972;2023-05-19T07:55:05;15.40;99.90
10390;DHT22;5241;47.830;12.972;2023-05-19T07:57:31;15.10;99.90
10390;DHT22;5241;47.830;12.972;2023-05-19T07:59:56;15.00;99.90
10390;DHT22;5241;47.830;12.972;2023-05-19T08:02:22;15.00;99.90
10390;DHT22;5241;47.830;12.972;2023-05-19T08:04:48;14.60;99.90
10390;DHT22;5241;47.830;12.972;2023-05-19T08:07:13;14.60;99.90
10390;DHT22;5241;47.830;12.972;2023-05-19T08:09:39;14.90;99.90
10390;DHT22;5241;47.830;12.972;2023-05-19T08:12:05;15.50;99.90
10390;DHT22;5241;47.830;12.972;2023-05-19T08:14:30;16.00;99.90
10390;DHT22;5241;47.830;12.972;2023-05-19T08:16:57;16.30;99.90
10390;DHT22;5241;47.830;12.972;2023-05-19T08:19:23;17.00;99.90
10390;DHT22;5241;47.830;12.972;2023-05-19T08:21:48;17.20;99.90
10390;DHT22;5241;47.830;12.972;2023-05-19T08:24:14;17.50;99.90
10390;DHT22;5241;47.830;12.972;2023-05-19T08:26:40;17.50;99.90
10390;DHT22;5241;47.830;12.972;2023-05-19T08:29:05;18.40;99.90
10390;DHT22;5241;47.830;12.972;2023-05-19T08:31:31;18.50;99.40
10390;DHT22;5241;47.830;12.972;2023-05-19T08:33:56;17.60;99.90
10390;DHT22;5241;47.830;12.972;2023-05-19T08:36:22;17.70;99.60
10390;DHT22;5241;47.830;12.972;2023-05-19T08:38:49;17.60;99.50
10390;DHT22;5241;47.830;12.972;2023-05-19T08:41:14;17.20;99.90
10390;DHT22;5241;47.830;12.972;2023-05-19T08:43:41;16.90;99.90
10390;DHT22;5241;47.830;12.972;2023-05-19T08:46:06;16.80;99.90
10390;DHT22;5241;47.830;12.972;2023-05-19T08:48:34;17.80;99.70
10390;DHT22;5241;47.830;12.972;2023-05-19T08:51:30;17.90;99.00
10390;DHT22;5241;47.830;12.972;2023-05-19T08:54:07;18.30;99.50
10390;DHT22;5241;47.830;12.972;2023-05-19T08:56:33;17.70;99.10
10390;DHT22;5241;47.830;12.972;2023-05-19T08:59:00;17.90;99.60
10390;DHT22;5241;47.830;12.972;2023-05-19T09:01:27;17.80;99.90
10390;DHT22;5241;47.830;12.972;2023-05-19T09:03:54;18.00;99.10
10390;DHT22;5241;47.830;12.972;2023-05-19T09:06:20;18.00;98.90
10390;DHT22;5241;47.830;12.972;2023-05-19T09:08:46;18.10;98.60
10390;DHT22;5241;47.830;12.972;2023-05-19T09:11:12;18.80;98.10
10390;DHT22;5241;47.830;12.972;2023-05-19T09:13:38;19.20;96.90
10390;DHT22;5241;47.830;12.972;2023-05-19T09:16:04;18.40;97.80
10390;DHT22;5241;47.830;12.972;2023-05-19T09:18:31;18.20;97.80
10390;DHT22;5241;47.830;12.972;2023-05-19T09:20:58;18.00;98.60
10390;DHT22;5241;47.830;12.972;2023-05-19T09:23:26;18.50;98.00
10390;DHT22;5241;47.830;12.972;2023-05-19T09:25:54;18.90;96.60
10390;DHT22;5241;47.830;12.972;2023-05-19T09:28:23;18.70;97.70
10390;DHT22;5241;47.830;12.972;2023-05-19T09:30:58;18.40;97.70
10390;DHT22;5241;47.830;12.972;2023-05-19T09:33:27;18.30;97.50
10390;DHT22;5241;47.830;12.972;2023-05-19T09:36:02;18.20;97.40
10390;DHT22;5241;47.830;12.972;2023-05-19T09:38:33;17.80;97.70
10390;DHT22;5241;47.830;12.972;2023-05-19T09:41:00;17.70;99.50
10390;DHT22;5241;47.830;12.972;2023-05-19T09:43:32;17.50;99.40
10390;DHT22;5241;47.830;12.972;2023-05-19T09:45:59;17.50;99.80
10390;DHT22;5241;47.830;12.972;2023-05-19T09:48:27;17.30;98.80
10390;DHT22;5241;47.830;12.972;2023-05-19T09:50:53;17.40;99.90
10390;DHT22;5241;47.830;12.972;2023-05-19T09:53:20;17.90;98.80
10390;DHT22;5241;47.830;12.972;2023-05-19T09:55:47;17.70;99.10
10390;DHT22;5241;47.830;12.972;2023-05-19T09:58:15;17.70;99.90
10390;DHT22;5241;47.830;12.972;2023-05-19T10:00:42;17.50;98.30
10390;DHT22;5241;47.830;12.972;2023-05-19T10:03:08;17.20;99.70
10390;DHT22;5241;47.830;12.972;2023-05-19T10:05:34;16.80;99.70
10390;DHT22;5241;47.830;12.972;2023-05-19T10:08:00;16.30;99.90
10390;DHT22;5241;47.830;12.972;2023-05-19T10:10:27;16.20;99.90
10390;DHT22;5241;47.830;12.972;2023-05-19T10:12:56;16.20;99.90
10390;DHT22;5241;47.830;12.972;2023-05-19T10:15:24;15.80;99.90
10390;DHT22;5241;47.830;12.972;2023-05-19T10:17:49;16.10;99.90
10390;DHT22;5241;47.830;12.972;2023-05-19T10:20:16;15.90;99.90
10390;DHT22;5241;47.830;12.972;2023-05-19T10:22:43;15.80;99.90
10390;DHT22;5241;47.830;12.972;2023-05-19T10:25:10;15.90;99.90
10390;DHT22;5241;47.830;12.972;2023-05-19T10:27:42;15.60;99.90
10390;DHT22;5241;47.830;12.972;2023-05-19T10:30:30;15.70;99.90
10390;DHT22;5241;47.830;12.972;2023-05-19T10:32:59;15.70;99.90
10390;DHT22;5241;47.830;12.972;2023-05-19T10:35:58;15.80;99.90
10390;DHT22;5241;47.830;12.972;2023-05-19T10:46:46;16.80;99.90
10390;DHT22;5241;47.830;12.972;2023-05-19T10:49:19;17.80;99.90
10390;DHT22;5241;47.830;12.972;2023-05-19T10:51:45;18.50;99.90
10390;DHT22;5241;47.830;12.972;2023-05-19T10:54:11;19.10;98.80
10390;DHT22;5241;47.830;12.972;2023-05-19T10:56:38;19.70;98.40
10390;DHT22;5241;47.830;12.972;2023-05-19T10:59:06;19.80;96.00
10390;DHT22;5241;47.830;12.972;2023-05-19T11:01:35;19.40;95.60
10390;DHT22;5241;47.830;12.972;2023-05-19T11:04:07;18.50;96.50
10390;DHT22;5241;47.830;12.972;2023-05-19T11:06:35;18.30;98.10
10390;DHT22;5241;47.830;12.972;2023-05-19T11:09:16;18.40;97.90
10390;DHT22;5241;47.830;12.972;2023-05-19T11:11:51;18.50;97.50
10390;DHT22;5241;47.830;12.972;2023-05-19T11:14:36;18.20;98.00
10390;DHT22;5241;47.830;12.972;2023-05-19T11:17:03;17.80;98.00
10390;DHT22;5241;47.830;12.972;2023-05-19T11:19:32;17.80;99.30
10390;DHT22;5241;47.830;12.972;2023-05-19T11:22:12;17.70;99.60
10390;DHT22;5241;47.830;12.972;2023-05-19T11:24:46;18.00;99.90
10390;DHT22;5241;47.830;12.972;2023-05-19T11:27:34;18.30;98.10
10390;DHT22;5241;47.830;12.972;2023-05-19T11:32:33;19.00;97.70
10390;DHT22;5241;47.830;12.972;2023-05-19T11:34:59;19.40;96.40
10390;DHT22;5241;47.830;12.972;2023-05-19T11:37:25;19.30;96.40
10390;DHT22;5241;47.830;12.972;2023-05-19T11:39:51;19.60;96.20
10390;DHT22;5241;47.830;12.972;2023-05-19T11:42:17;20.50;96.40
10390;DHT22;5241;47.830;12.972;2023-05-19T11:44:46;20.70;95.80
10390;DHT22;5241;47.830;12.972;2023-05-19T11:47:15;20.20;94.50
10390;DHT22;5241;47.830;12.972;2023-05-19T11:49:47;19.80;95.10
10390;DHT22;5241;47.830;12.972;2023-05-19T11:52:13;19.60;96.40
10390;DHT22;5241;47.830;12.972;2023-05-19T11:54:39;20.00;96.40
10390;DHT22;5241;47.830;12.972;2023-05-19T11:57:07;20.20;97.10
10390;DHT22;5241;47.830;12.972;2023-05-19T11:59:35;20.40;96.00
10390;DHT22;5241;47.830;12.972;2023-05-19T12:02:20;20.70;94.50
10390;DHT22;5241;47.830;12.972;2023-05-19T12:04:47;20.10;95.30
10390;DHT22;5241;47.830;12.972;2023-05-19T12:07:21;20.10;96.70
10390;DHT22;5241;47.830;12.972;2023-05-19T12:09:48;20.10;95.70
10390;DHT22;5241;47.830;12.972;2023-05-19T12:12:19;19.90;95.40
10390;DHT22;5241;47.830;12.972;2023-05-19T12:14:50;20.40;95.10
10390;DHT22;5241;47.830;12.972;2023-05-19T12:17:17;21.10;94.10
10390;DHT22;5241;47.830;12.972;2023-05-19T12:19:48;21.50;93.70
10390;DHT22;5241;47.830;12.972;2023-05-19T12:22:17;21.40;92.40
10390;DHT22;5241;47.830;12.972;2023-05-19T12:24:44;20.70;93.90
10390;DHT22;5241;47.830;12.972;2023-05-19T12:27:18;20.50;94.00
10390;DHT22;5241;47.830;12.972;2023-05-19T12:29:49;20.80;93.60
10390;DHT22;5241;47.830;12.972;2023-05-19T12:32:15;21.00;93.30
10390;DHT22;5241;47.830;12.972;2023-05-19T12:34:41;20.60;93.30
10390;DHT22;5241;47.830;12.972;2023-05-19T12:37:09;20.50;94.20
10390;DHT22;5241;47.830;12.972;2023-05-19T12:39:35;20.50;94.40
10390;DHT22;5241;47.830;12.972;2023-05-19T12:42:08;20.50;95.00
10390;DHT22;5241;47.830;12.972;2023-05-19T12:44:42;20.70;95.00
10390;DHT22;5241;47.830;12.972;2023-05-19T12:47:10;21.40;95.10
10390;DHT22;5241;47.830;12.972;2023-05-19T12:49:52;21.90;94.00
10390;DHT22;5241;47.830;12.972;2023-05-19T12:52:18;21.20;94.40
10390;DHT22;5241;47.830;12.972;2023-05-19T12:54:47;20.90;93.60
10390;DHT22;5241;47.830;12.972;2023-05-19T12:57:15;20.40;93.70
10390;DHT22;5241;47.830;12.972;2023-05-19T12:59:41;20.10;94.30
10390;DHT22;5241;47.830;12.972;2023-05-19T13:02:07;19.90;95.10
10390;DHT22;5241;47.830;12.972;2023-05-19T13:04:33;20.00;95.10
10390;DHT22;5241;47.830;12.972;2023-05-19T13:06:58;20.20;94.80
10390;DHT22;5241;47.830;12.972;2023-05-19T13:09:24;20.30;94.70
10390;DHT22;5241;47.830;12.972;2023-05-19T13:11:50;21.30;93.00
10390;DHT22;5241;47.830;12.972;2023-05-19T13:14:17;21.50;93.00
10390;DHT22;5241;47.830;12.972;2023-05-19T13:16:45;20.70;92.50
10390;DHT22;5241;47.830;12.972;2023-05-19T13:19:17;20.60;93.70
10390;DHT22;5241;47.830;12.972;2023-05-19T13:21:43;21.20;93.10
10390;DHT22;5241;47.830;12.972;2023-05-19T13:24:12;21.10;92.20
10390;DHT22;5241;47.830;12.972;2023-05-19T13:26:37;21.10;92.30
10390;DHT22;5241;47.830;12.972;2023-05-19T13:29:03;21.00;92.00
10390;DHT22;5241;47.830;12.972;2023-05-19T13:31:29;20.10;93.80
10390;DHT22;5241;47.830;12.972;2023-05-19T13:33:55;20.40;93.80
10390;DHT22;5241;47.830;12.972;2023-05-19T13:36:21;20.50;92.50
10390;DHT22;5241;47.830;12.972;2023-05-19T13:38:47;20.00;92.90
10390;DHT22;5241;47.830;12.972;2023-05-19T13:41:12;19.50;94.00
10390;DHT22;5241;47.830;12.972;2023-05-19T13:43:38;19.60;95.30
10390;DHT22;5241;47.830;12.972;2023-05-19T13:46:04;20.00;94.10
10390;DHT22;5241;47.830;12.972;2023-05-19T13:48:30;20.10;94.80
10390;DHT22;5241;47.830;12.972;2023-05-19T13:50:55;21.20;92.40
10390;DHT22;5241;47.830;12.972;2023-05-19T13:53:21;22.20;91.30
10390;DHT22;5241;47.830;12.972;2023-05-19T13:55:47;22.70;90.40
10390;DHT22;5241;47.830;12.972;2023-05-19T13:58:12;23.20;90.80
10390;DHT22;5241;47.830;12.972;2023-05-19T14:00:40;23.50;87.50
10390;DHT22;5241;47.830;12.972;2023-05-19T14:03:05;23.40;87.80
10390;DHT22;5241;47.830;12.972;2023-05-19T14:05:31;23.90;87.20
10390;DHT22;5241;47.830;12.972;2023-05-19T14:07:57;23.90;85.70
10390;DHT22;5241;47.830;12.972;2023-05-19T14:10:25;24.40;84.90
10390;DHT22;5241;47.830;12.972;2023-05-19T14:12:50;24.90;83.00
10390;DHT22;5241;47.830;12.972;2023-05-19T14:15:17;25.00;79.90
10390;DHT22;5241;47.830;12.972;2023-05-19T14:17:43;24.20;81.80
10390;DHT22;5241;47.830;12.972;2023-05-19T14:20:09;23.60;83.30
10390;DHT22;5241;47.830;12.972;2023-05-19T14:22:34;23.30;84.80
10390;DHT22;5241;47.830;12.972;2023-05-19T14:25:01;23.40;83.50
10390;DHT22;5241;47.830;12.972;2023-05-19T14:27:26;23.50;82.80
10390;DHT22;5241;47.830;12.972;2023-05-19T14:29:52;23.90;83.10
10390;DHT22;5241;47.830;12.972;2023-05-19T14:32:17;23.90;82.20
10390;DHT22;5241;47.830;12.972;2023-05-19T14:34:43;24.50;81.10
10390;DHT22;5241;47.830;12.972;2023-05-19T14:37:17;23.70;83.70
10390;DHT22;5241;47.830;12.972;2023-05-19T14:39:42;24.00;82.30
10390;DHT22;5241;47.830;12.972;2023-05-19T14:42:09;23.30;84.90
10390;DHT22;5241;47.830;12.972;2023-05-19T14:44:34;23.60;83.00
10390;DHT22;5241;47.830;12.972;2023-05-19T14:47:01;23.40;84.40
10390;DHT22;5241;47.830;12.972;2023-05-19T14:49:31;23.50;83.80
10390;DHT22;5241;47.830;12.972;2023-05-19T14:51:56;24.10;81.90
10390;DHT22;5241;47.830;12.972;2023-05-19T14:54:22;24.10;83.50
10390;DHT22;5241;47.830;12.972;2023-05-19T14:56:47;24.50;79.80
10390;DHT22;5241;47.830;12.972;2023-05-19T14:59:13;24.60;79.50
10390;DHT22;5241;47.830;12.972;2023-05-19T15:01:38;24.40;80.30
10390;DHT22;5241;47.830;12.972;2023-05-19T15:04:04;23.70;82.10
10390;DHT22;5241;47.830;12.972;2023-05-19T15:06:29;23.00;83.90
10390;DHT22;5241;47.830;12.972;2023-05-19T15:08:55;22.70;87.10
10390;DHT22;5241;47.830;12.972;2023-05-19T15:11:21;23.10;85.70
10390;DHT22;5241;47.830;12.972;2023-05-19T15:13:46;24.20;83.80
10390;DHT22;5241;47.830;12.972;2023-05-19T15:16:12;24.50;82.70
10390;DHT22;5241;47.830;12.972;2023-05-19T15:18:37;23.70;83.30
10390;DHT22;5241;47.830;12.972;2023-05-19T15:21:03;22.30;87.00
10390;DHT22;5241;47.830;12.972;2023-05-19T15:23:29;22.20;89.10
10390;DHT22;5241;47.830;12.972;2023-05-19T15:25:54;22.90;88.20
10390;DHT22;5241;47.830;12.972;2023-05-19T15:28:20;23.20;86.60
10390;DHT22;5241;47.830;12.972;2023-05-19T15:30:46;23.50;85.20
10390;DHT22;5241;47.830;12.972;2023-05-19T15:33:11;23.20;85.70
10390;DHT22;5241;47.830;12.972;2023-05-19T15:35:37;22.70;89.10
10390;DHT22;5241;47.830;12.972;2023-05-19T15:38:03;22.30;90.30
10390;DHT22;5241;47.830;12.972;2023-05-19T15:40:34;21.80;91.60
10390;DHT22;5241;47.830;12.972;2023-05-19T15:43:00;21.30;91.60
10390;DHT22;5241;47.830;12.972;2023-05-19T15:45:25;20.90;93.10
10390;DHT22;5241;47.830;12.972;2023-05-19T15:47:51;20.80;92.60
10390;DHT22;5241;47.830;12.972;2023-05-19T15:50:17;20.70;94.00
10390;DHT22;5241;47.830;12.972;2023-05-19T15:52:42;20.70;93.20
10390;DHT22;5241;47.830;12.972;2023-05-19T15:55:08;20.60;94.00
10390;DHT22;5241;47.830;12.972;2023-05-19T15:57:34;20.20;94.50
10390;DHT22;5241;47.830;12.972;2023-05-19T15:59:59;20.40;93.80
10390;DHT22;5241;47.830;12.972;2023-05-19T16:02:25;20.20;94.10